Agia Marina — LL12206 — position and weather

sailwx.info

Track history (hours):
 
Tides and Currents Weather Stations Pressure Air Temp Water Temp Dewpoint Dewpoint Depression Visibility Wind Speed Wind Dir Waves Ship Positions

Agia Marina

Last reported at 2017-Sep-12 06:32 UTC. Time now 2017-Sep-20 22:14 UTC.
Position N 35°08' E 032°29'.
Warning: this ship's position is 8 days out of date.

Length 12 m.

Type: Fishing. MMSI: 210536000.

Date/timePositionNaut miles runAvg speedWind from/ knotsBaromVisibWave heightAir tempDewpointWater temp
2017-Sep-12 06:32N 35°08' E 032°29'0 0.6
2017-Sep-12 06:21N 35°08' E 032°29'0 0.6
2017-Sep-12 05:59N 35°08' E 032°29'0 0.5
2017-Sep-12 05:30N 35°08' E 032°29'1 0.7
2017-Sep-12 04:05N 35°09' E 032°30'1 2.3
2017-Sep-12 03:51N 35°09' E 032°30'1 0.3
2017-Sep-12 01:52N 35°09' E 032°30'  
2017-Sep-04 22:39N 35°11' E 032°33'0 0.0
2017-Sep-04 22:27N 35°11' E 032°33'20 1.9
2017-Sep-04 11:44N 34°54' E 032°19'1 2.9
2017-Sep-04 11:15N 34°54' E 032°17'2 7.0
2017-Sep-04 10:54N 34°54' E 032°14'3 7.1
2017-Sep-04 10:29N 34°54' E 032°11'6 2.7
2017-Sep-04 08:13N 34°58' E 032°06'1 4.1
2017-Sep-04 08:01N 34°59' E 032°06'3 3.0
2017-Sep-04 06:51N 35°03' E 032°07'  
Track history (hours):
 
Tides and Currents Weather Stations Pressure Air Temp Water Temp Dewpoint Dewpoint Depression Visibility Wind Speed Wind Dir Waves Ship Positions

Agia Marina

Last reported at 2017-Sep-12 06:32 UTC. Time now 2017-Sep-20 22:14 UTC.
Position N 35°08' E 032°29'.
Warning: this ship's position is 8 days out of date.

Length 12 m.

Type: Fishing. MMSI: 210536000.

Date/timePositionNaut miles runAvg speedWind from/ knotsBaromVisibWave heightAir tempDewpointWater temp
2017-Sep-12 06:32N 35°08' E 032°29'0 0.6
2017-Sep-12 06:21N 35°08' E 032°29'0 0.6
2017-Sep-12 05:59N 35°08' E 032°29'0 0.5
2017-Sep-12 05:30N 35°08' E 032°29'1 0.7
2017-Sep-12 04:05N 35°09' E 032°30'1 2.3
2017-Sep-12 03:51N 35°09' E 032°30'1 0.3
2017-Sep-12 01:52N 35°09' E 032°30'  
2017-Sep-04 22:39N 35°11' E 032°33'0 0.0
2017-Sep-04 22:27N 35°11' E 032°33'20 1.9
2017-Sep-04 11:44N 34°54' E 032°19'1 2.9
2017-Sep-04 11:15N 34°54' E 032°17'2 7.0
2017-Sep-04 10:54N 34°54' E 032°14'3 7.1
2017-Sep-04 10:29N 34°54' E 032°11'6 2.7
2017-Sep-04 08:13N 34°58' E 032°06'1 4.1
2017-Sep-04 08:01N 34°59' E 032°06'3 3.0
2017-Sep-04 06:51N 35°03' E 032°07'  

Dump ship's entire track history